sensor_id;sensor_type;location;lat;lon;timestamp;P1;durP1;ratioP1;P2;durP2;ratioP2
34359;SDS011;20624;55.870;26.506;2022-10-30T00:02:24;156.52;;;81.90;;
34359;SDS011;20624;55.870;26.506;2022-10-30T00:04:52;1.98;;;0.52;;
34359;SDS011;20624;55.870;26.506;2022-10-30T00:07:19;1.95;;;0.47;;
34359;SDS011;20624;55.870;26.506;2022-10-30T00:09:50;3.58;;;0.60;;
34359;SDS011;20624;55.870;26.506;2022-10-30T00:12:17;1.65;;;0.40;;
34359;SDS011;20624;55.870;26.506;2022-10-30T00:14:45;66.70;;;49.53;;
34359;SDS011;20624;55.870;26.506;2022-10-30T00:17:16;2.28;;;0.60;;
34359;SDS011;20624;55.870;26.506;2022-10-30T00:19:43;45.88;;;40.72;;
34359;SDS011;20624;55.870;26.506;2022-10-30T00:22:11;2.55;;;0.57;;
34359;SDS011;20624;55.870;26.506;2022-10-30T00:24:39;32.17;;;29.35;;
34359;SDS011;20624;55.870;26.506;2022-10-30T00:27:06;34.60;;;31.20;;
34359;SDS011;20624;55.870;26.506;2022-10-30T00:29:38;213.82;;;102.85;;
34359;SDS011;20624;55.870;26.506;2022-10-30T00:32:05;242.45;;;113.95;;
34359;SDS011;20624;55.870;26.506;2022-10-30T00:34:33;271.45;;;124.95;;
34359;SDS011;20624;55.870;26.506;2022-10-30T00:37:03;274.30;;;126.78;;
34359;SDS011;20624;55.870;26.506;2022-10-30T00:39:30;283.90;;;130.30;;
34359;SDS011;20624;55.870;26.506;2022-10-30T00:41:57;281.88;;;128.88;;
34359;SDS011;20624;55.870;26.506;2022-10-30T00:44:33;277.50;;;130.35;;
34359;SDS011;20624;55.870;26.506;2022-10-30T00:47:19;282.15;;;127.30;;
34359;SDS011;20624;55.870;26.506;2022-10-30T00:49:58;200.73;;;98.82;;
34359;SDS011;20624;55.870;26.506;2022-10-30T00:52:36;81.97;;;53.78;;
34359;SDS011;20624;55.870;26.506;2022-10-30T00:55:18;179.40;;;90.47;;
34359;SDS011;20624;55.870;26.506;2022-10-30T00:57:51;161.13;;;83.70;;
34359;SDS011;20624;55.870;26.506;2022-10-30T01:00:19;82.22;;;54.30;;
34359;SDS011;20624;55.870;26.506;2022-10-30T01:02:49;147.60;;;78.53;;
34359;SDS011;20624;55.870;26.506;2022-10-30T01:05:17;131.55;;;73.65;;
34359;SDS011;20624;55.870;26.506;2022-10-30T01:07:48;110.55;;;65.03;;
34359;SDS011;20624;55.870;26.506;2022-10-30T01:10:16;208.13;;;100.55;;
34359;SDS011;20624;55.870;26.506;2022-10-30T01:12:44;184.20;;;92.30;;
34359;SDS011;20624;55.870;26.506;2022-10-30T01:15:15;180.77;;;89.97;;
34359;SDS011;20624;55.870;26.506;2022-10-30T01:20:27;152.07;;;80.38;;
34359;SDS011;20624;55.870;26.506;2022-10-30T01:28:25;238.55;;;112.80;;
34359;SDS011;20624;55.870;26.506;2022-10-30T01:34:24;171.25;;;85.68;;
34359;SDS011;20624;55.870;26.506;2022-10-30T01:37:14;161.13;;;83.07;;
34359;SDS011;20624;55.870;26.506;2022-10-30T01:39:47;184.00;;;92.47;;
34359;SDS011;20624;55.870;26.506;2022-10-30T01:54:08;184.10;;;91.03;;
34359;SDS011;20624;55.870;26.506;2022-10-30T02:01:52;171.35;;;87.53;;
34359;SDS011;20624;55.870;26.506;2022-10-30T02:04:19;158.85;;;82.60;;
34359;SDS011;20624;55.870;26.506;2022-10-30T02:06:47;217.93;;;105.60;;
34359;SDS011;20624;55.870;26.506;2022-10-30T02:09:15;172.35;;;87.15;;
34359;SDS011;20624;55.870;26.506;2022-10-30T02:11:43;145.15;;;78.13;;
34359;SDS011;20624;55.870;26.506;2022-10-30T02:14:13;147.98;;;78.75;;
34359;SDS011;20624;55.870;26.506;2022-10-30T02:16:46;162.27;;;83.35;;
34359;SDS011;20624;55.870;26.506;2022-10-30T02:19:15;186.05;;;92.10;;
34359;SDS011;20624;55.870;26.506;2022-10-30T02:21:43;177.57;;;89.57;;
34359;SDS011;20624;55.870;26.506;2022-10-30T02:24:10;238.30;;;113.50;;
34359;SDS011;20624;55.870;26.506;2022-10-30T02:26:38;179.80;;;88.97;;
34359;SDS011;20624;55.870;26.506;2022-10-30T02:29:05;154.65;;;79.55;;
34359;SDS011;20624;55.870;26.506;2022-10-30T02:31:34;219.38;;;109.43;;
34359;SDS011;20624;55.870;26.506;2022-10-30T02:34:02;269.80;;;124.75;;
34359;SDS011;20624;55.870;26.506;2022-10-30T02:36:30;234.88;;;111.95;;
34359;SDS011;20624;55.870;26.506;2022-10-30T02:38:57;190.32;;;93.57;;
34359;SDS011;20624;55.870;26.506;2022-10-30T02:41:25;239.80;;;108.88;;
34359;SDS011;20624;55.870;26.506;2022-10-30T02:43:52;228.30;;;107.20;;
34359;SDS011;20624;55.870;26.506;2022-10-30T02:46:20;308.02;;;139.20;;
34359;SDS011;20624;55.870;26.506;2022-10-30T02:48:48;237.18;;;109.18;;
34359;SDS011;20624;55.870;26.506;2022-10-30T02:51:15;229.38;;;108.80;;
34359;SDS011;20624;55.870;26.506;2022-10-30T02:53:43;252.93;;;118.47;;
34359;SDS011;20624;55.870;26.506;2022-10-30T02:56:11;286.17;;;131.65;;
34359;SDS011;20624;55.870;26.506;2022-10-30T02:58:39;302.95;;;136.77;;
34359;SDS011;20624;55.870;26.506;2022-10-30T03:01:08;310.17;;;141.52;;
34359;SDS011;20624;55.870;26.506;2022-10-30T03:03:45;304.05;;;141.05;;
34359;SDS011;20624;55.870;26.506;2022-10-30T03:06:14;305.70;;;138.20;;
34359;SDS011;20624;55.870;26.506;2022-10-30T03:08:44;243.60;;;112.55;;
34359;SDS011;20624;55.870;26.506;2022-10-30T03:11:12;282.88;;;135.30;;
34359;SDS011;20624;55.870;26.506;2022-10-30T03:13:41;240.88;;;112.40;;
34359;SDS011;20624;55.870;26.506;2022-10-30T03:16:12;250.30;;;117.93;;
34359;SDS011;20624;55.870;26.506;2022-10-30T03:18:42;270.60;;;124.45;;
34359;SDS011;20624;55.870;26.506;2022-10-30T03:21:11;261.13;;;121.63;;
34359;SDS011;20624;55.870;26.506;2022-10-30T03:23:43;271.35;;;123.80;;
34359;SDS011;20624;55.870;26.506;2022-10-30T03:26:11;267.30;;;124.25;;
34359;SDS011;20624;55.870;26.506;2022-10-30T03:28:39;293.70;;;132.48;;
34359;SDS011;20624;55.870;26.506;2022-10-30T03:31:08;260.13;;;120.32;;
34359;SDS011;20624;55.870;26.506;2022-10-30T03:33:37;304.48;;;138.38;;
34359;SDS011;20624;55.870;26.506;2022-10-30T03:36:05;247.20;;;114.75;;
34359;SDS011;20624;55.870;26.506;2022-10-30T03:38:33;290.95;;;131.40;;
34359;SDS011;20624;55.870;26.506;2022-10-30T03:41:00;287.25;;;132.23;;
34359;SDS011;20624;55.870;26.506;2022-10-30T03:43:28;303.15;;;136.65;;
34359;SDS011;20624;55.870;26.506;2022-10-30T03:45:57;284.05;;;131.05;;
34359;SDS011;20624;55.870;26.506;2022-10-30T03:48:26;282.00;;;131.07;;
34359;SDS011;20624;55.870;26.506;2022-10-30T03:50:55;281.08;;;130.50;;
34359;SDS011;20624;55.870;26.506;2022-10-30T03:53:24;273.42;;;127.20;;
34359;SDS011;20624;55.870;26.506;2022-10-30T03:55:52;303.23;;;140.07;;
34359;SDS011;20624;55.870;26.506;2022-10-30T03:58:19;212.32;;;102.22;;
34359;SDS011;20624;55.870;26.506;2022-10-30T04:00:47;146.25;;;79.82;;
34359;SDS011;20624;55.870;26.506;2022-10-30T04:03:14;270.40;;;126.22;;
34359;SDS011;20624;55.870;26.506;2022-10-30T04:05:42;85.93;;;55.70;;
34359;SDS011;20624;55.870;26.506;2022-10-30T04:08:12;259.98;;;122.22;;
34359;SDS011;20624;55.870;26.506;2022-10-30T04:10:43;196.63;;;96.18;;
34359;SDS011;20624;55.870;26.506;2022-10-30T04:13:12;221.40;;;102.82;;
34359;SDS011;20624;55.870;26.506;2022-10-30T04:15:42;153.52;;;80.05;;
34359;SDS011;20624;55.870;26.506;2022-10-30T04:18:10;198.75;;;98.05;;
34359;SDS011;20624;55.870;26.506;2022-10-30T04:20:37;245.35;;;119.40;;
34359;SDS011;20624;55.870;26.506;2022-10-30T04:23:05;152.82;;;80.13;;
34359;SDS011;20624;55.870;26.506;2022-10-30T04:25:35;208.05;;;101.60;;
34359;SDS011;20624;55.870;26.506;2022-10-30T04:28:02;162.25;;;84.68;;
34359;SDS011;20624;55.870;26.506;2022-10-30T04:30:30;30.33;;;16.45;;
34359;SDS011;20624;55.870;26.506;2022-10-30T04:33:01;268.30;;;125.32;;
34359;SDS011;20624;55.870;26.506;2022-10-30T04:35:31;319.05;;;146.65;;
34359;SDS011;20624;55.870;26.506;2022-10-30T04:38:00;174.95;;;88.43;;
34359;SDS011;20624;55.870;26.506;2022-10-30T04:40:30;2.08;;;0.43;;
34359;SDS011;20624;55.870;26.506;2022-10-30T04:42:59;1.23;;;0.20;;
34359;SDS011;20624;55.870;26.506;2022-10-30T04:45:28;1.85;;;0.30;;
34359;SDS011;20624;55.870;26.506;2022-10-30T04:48:03;0.75;;;0.22;;
34359;SDS011;20624;55.870;26.506;2022-10-30T04:50:41;0.60;;;0.20;;
34359;SDS011;20624;55.870;26.506;2022-10-30T04:53:16;1.50;;;0.30;;
34359;SDS011;20624;55.870;26.506;2022-10-30T04:55:44;1.52;;;0.30;;
34359;SDS011;20624;55.870;26.506;2022-10-30T04:58:12;3.10;;;0.47;;
34359;SDS011;20624;55.870;26.506;2022-10-30T05:00:39;0.65;;;0.10;;
34359;SDS011;20624;55.870;26.506;2022-10-30T05:03:08;1.08;;;0.35;;
34359;SDS011;20624;55.870;26.506;2022-10-30T05:05:45;1.50;;;0.28;;
34359;SDS011;20624;55.870;26.506;2022-10-30T05:08:14;1.25;;;0.30;;
34359;SDS011;20624;55.870;26.506;2022-10-30T05:10:41;4.55;;;0.63;;
34359;SDS011;20624;55.870;26.506;2022-10-30T05:13:09;1.02;;;0.25;;
34359;SDS011;20624;55.870;26.506;2022-10-30T05:15:37;2.45;;;0.38;;
34359;SDS011;20624;55.870;26.506;2022-10-30T05:18:08;2.55;;;0.43;;
34359;SDS011;20624;55.870;26.506;2022-10-30T05:20:35;1.65;;;0.30;;
34359;SDS011;20624;55.870;26.506;2022-10-30T05:23:03;1.88;;;0.38;;
34359;SDS011;20624;55.870;26.506;2022-10-30T05:25:30;2.40;;;0.40;;
34359;SDS011;20624;55.870;26.506;2022-10-30T05:27:59;2.20;;;0.35;;
34359;SDS011;20624;55.870;26.506;2022-10-30T05:30:29;0.95;;;0.30;;
34359;SDS011;20624;55.870;26.506;2022-10-30T05:35:26;1.85;;;0.30;;
34359;SDS011;20624;55.870;26.506;2022-10-30T05:37:54;2.15;;;0.40;;
34359;SDS011;20624;55.870;26.506;2022-10-30T05:40:24;2.65;;;0.40;;
34359;SDS011;20624;55.870;26.506;2022-10-30T05:42:52;1.83;;;0.30;;
34359;SDS011;20624;55.870;26.506;2022-10-30T05:45:20;3.25;;;0.47;;
34359;SDS011;20624;55.870;26.506;2022-10-30T05:50:35;2.25;;;0.43;;
34359;SDS011;20624;55.870;26.506;2022-10-30T05:53:03;2.35;;;0.32;;
34359;SDS011;20624;55.870;26.506;2022-10-30T05:55:35;1.33;;;0.20;;
34359;SDS011;20624;55.870;26.506;2022-10-30T05:58:03;1.80;;;0.30;;
34359;SDS011;20624;55.870;26.506;2022-10-30T06:00:32;0.73;;;0.20;;
34359;SDS011;20624;55.870;26.506;2022-10-30T06:03:05;1.27;;;0.20;;
34359;SDS011;20624;55.870;26.506;2022-10-30T06:05:34;1.23;;;0.13;;
34359;SDS011;20624;55.870;26.506;2022-10-30T06:08:02;1.48;;;0.30;;
34359;SDS011;20624;55.870;26.506;2022-10-30T06:10:31;1.42;;;0.20;;
34359;SDS011;20624;55.870;26.506;2022-10-30T06:13:01;1.33;;;0.30;;
34359;SDS011;20624;55.870;26.506;2022-10-30T06:15:30;1.50;;;0.30;;
34359;SDS011;20624;55.870;26.506;2022-10-30T06:17:58;2.13;;;0.40;;
34359;SDS011;20624;55.870;26.506;2022-10-30T06:20:27;0.90;;;0.20;;
34359;SDS011;20624;55.870;26.506;2022-10-30T06:22:59;2.08;;;0.38;;
34359;SDS011;20624;55.870;26.506;2022-10-30T06:25:34;2.25;;;0.50;;
34359;SDS011;20624;55.870;26.506;2022-10-30T06:28:08;1.08;;;0.30;;
34359;SDS011;20624;55.870;26.506;2022-10-30T06:30:36;1.30;;;0.20;;
34359;SDS011;20624;55.870;26.506;2022-10-30T06:33:04;1.05;;;0.20;;
34359;SDS011;20624;55.870;26.506;2022-10-30T06:35:32;1.58;;;0.30;;
34359;SDS011;20624;55.870;26.506;2022-10-30T06:38:05;2.63;;;0.40;;
34359;SDS011;20624;55.870;26.506;2022-10-30T06:40:34;1.02;;;0.10;;
34359;SDS011;20624;55.870;26.506;2022-10-30T06:43:01;0.82;;;0.20;;
34359;SDS011;20624;55.870;26.506;2022-10-30T06:45:29;1.33;;;0.20;;
34359;SDS011;20624;55.870;26.506;2022-10-30T06:47:58;3.28;;;0.45;;
34359;SDS011;20624;55.870;26.506;2022-10-30T06:50:27;0.88;;;0.20;;
34359;SDS011;20624;55.870;26.506;2022-10-30T06:52:55;3.22;;;0.50;;
34359;SDS011;20624;55.870;26.506;2022-10-30T06:55:22;1.73;;;0.30;;
34359;SDS011;20624;55.870;26.506;2022-10-30T06:57:56;3.47;;;0.60;;
34359;SDS011;20624;55.870;26.506;2022-10-30T07:00:24;0.47;;;0.20;;
34359;SDS011;20624;55.870;26.506;2022-10-30T07:02:55;3.00;;;0.60;;
34359;SDS011;20624;55.870;26.506;2022-10-30T07:05:24;10.18;;;1.45;;
34359;SDS011;20624;55.870;26.506;2022-10-30T07:07:54;19.77;;;2.70;;
34359;SDS011;20624;55.870;26.506;2022-10-30T07:10:22;6.85;;;1.00;;
34359;SDS011;20624;55.870;26.506;2022-10-30T07:12:50;2.95;;;0.47;;
34359;SDS011;20624;55.870;26.506;2022-10-30T07:15:18;2.95;;;0.43;;
34359;SDS011;20624;55.870;26.506;2022-10-30T07:17:55;5.00;;;0.70;;
34359;SDS011;20624;55.870;26.506;2022-10-30T07:20:25;2.28;;;0.35;;
34359;SDS011;20624;55.870;26.506;2022-10-30T07:22:53;2.67;;;0.47;;
34359;SDS011;20624;55.870;26.506;2022-10-30T07:25:22;1.65;;;0.38;;
34359;SDS011;20624;55.870;26.506;2022-10-30T07:27:50;3.30;;;0.65;;
34359;SDS011;20624;55.870;26.506;2022-10-30T07:30:20;1.83;;;0.30;;
34359;SDS011;20624;55.870;26.506;2022-10-30T07:35:24;4.47;;;0.63;;
34359;SDS011;20624;55.870;26.506;2022-10-30T07:37:51;6.65;;;0.90;;
34359;SDS011;20624;55.870;26.506;2022-10-30T07:40:19;2.33;;;0.35;;
34359;SDS011;20624;55.870;26.506;2022-10-30T07:42:47;3.38;;;0.55;;
34359;SDS011;20624;55.870;26.506;2022-10-30T07:45:15;1.50;;;0.20;;
34359;SDS011;20624;55.870;26.506;2022-10-30T07:47:46;1.65;;;0.25;;
34359;SDS011;20624;55.870;26.506;2022-10-30T07:50:14;2.00;;;0.32;;
34359;SDS011;20624;55.870;26.506;2022-10-30T07:52:41;0.77;;;0.28;;
34359;SDS011;20624;55.870;26.506;2022-10-30T07:55:09;0.40;;;0.20;;
34359;SDS011;20624;55.870;26.506;2022-10-30T07:57:37;1.77;;;0.30;;
34359;SDS011;20624;55.870;26.506;2022-10-30T08:00:06;0.98;;;0.20;;
34359;SDS011;20624;55.870;26.506;2022-10-30T08:02:35;2.38;;;0.40;;
34359;SDS011;20624;55.870;26.506;2022-10-30T08:05:03;2.25;;;0.43;;
34359;SDS011;20624;55.870;26.506;2022-10-30T08:07:32;2.03;;;0.30;;
34359;SDS011;20624;55.870;26.506;2022-10-30T08:10:00;2.65;;;0.43;;
34359;SDS011;20624;55.870;26.506;2022-10-30T08:12:28;1.90;;;0.30;;
34359;SDS011;20624;55.870;26.506;2022-10-30T08:14:55;3.03;;;0.52;;
34359;SDS011;20624;55.870;26.506;2022-10-30T08:17:23;1.25;;;0.30;;
34359;SDS011;20624;55.870;26.506;2022-10-30T08:19:51;2.05;;;0.30;;
34359;SDS011;20624;55.870;26.506;2022-10-30T08:22:18;1.88;;;0.32;;
34359;SDS011;20624;55.870;26.506;2022-10-30T08:24:46;0.45;;;0.17;;
34359;SDS011;20624;55.870;26.506;2022-10-30T08:27:14;1.23;;;0.28;;
34359;SDS011;20624;55.870;26.506;2022-10-30T08:29:42;1.02;;;0.30;;
34359;SDS011;20624;55.870;26.506;2022-10-30T08:32:10;1.85;;;0.32;;
34359;SDS011;20624;55.870;26.506;2022-10-30T08:34:43;2.00;;;0.38;;
34359;SDS011;20624;55.870;26.506;2022-10-30T08:37:15;1.42;;;0.20;;
34359;SDS011;20624;55.870;26.506;2022-10-30T08:39:42;1.30;;;0.20;;
34359;SDS011;20624;55.870;26.506;2022-10-30T08:42:13;4.82;;;0.75;;
34359;SDS011;20624;55.870;26.506;2022-10-30T08:44:40;1.83;;;0.32;;
34359;SDS011;20624;55.870;26.506;2022-10-30T08:47:08;1.42;;;0.20;;
34359;SDS011;20624;55.870;26.506;2022-10-30T08:49:36;1.70;;;0.35;;
34359;SDS011;20624;55.870;26.506;2022-10-30T08:52:06;1.95;;;0.28;;
34359;SDS011;20624;55.870;26.506;2022-10-30T08:54:34;1.00;;;0.20;;
34359;SDS011;20624;55.870;26.506;2022-10-30T08:57:02;1.95;;;0.30;;
34359;SDS011;20624;55.870;26.506;2022-10-30T08:59:29;5.55;;;0.80;;
34359;SDS011;20624;55.870;26.506;2022-10-30T09:01:57;2.47;;;0.40;;
34359;SDS011;20624;55.870;26.506;2022-10-30T09:04:24;1.38;;;0.20;;
34359;SDS011;20624;55.870;26.506;2022-10-30T09:06:52;2.67;;;0.40;;
34359;SDS011;20624;55.870;26.506;2022-10-30T09:09:19;0.73;;;0.10;;
34359;SDS011;20624;55.870;26.506;2022-10-30T09:11:47;1.85;;;0.30;;
34359;SDS011;20624;55.870;26.506;2022-10-30T09:14:14;2.03;;;0.40;;
34359;SDS011;20624;55.870;26.506;2022-10-30T09:16:44;0.68;;;0.13;;
34359;SDS011;20624;55.870;26.506;2022-10-30T09:19:11;3.03;;;0.43;;
34359;SDS011;20624;55.870;26.506;2022-10-30T09:21:44;1.65;;;0.20;;
34359;SDS011;20624;55.870;26.506;2022-10-30T09:24:11;2.17;;;0.40;;
34359;SDS011;20624;55.870;26.506;2022-10-30T09:26:39;1.35;;;0.28;;
34359;SDS011;20624;55.870;26.506;2022-10-30T09:29:06;3.70;;;0.52;;
34359;SDS011;20624;55.870;26.506;2022-10-30T09:31:34;0.90;;;0.25;;
34359;SDS011;20624;55.870;26.506;2022-10-30T09:34:02;2.08;;;0.38;;
34359;SDS011;20624;55.870;26.506;2022-10-30T09:36:30;1.88;;;0.25;;
34359;SDS011;20624;55.870;26.506;2022-10-30T09:38:58;2.05;;;0.45;;
34359;SDS011;20624;55.870;26.506;2022-10-30T09:47:19;2.40;;;0.35;;
34359;SDS011;20624;55.870;26.506;2022-10-30T09:55:39;1.27;;;0.20;;
34359;SDS011;20624;55.870;26.506;2022-10-30T09:58:13;2.17;;;0.30;;
34359;SDS011;20624;55.870;26.506;2022-10-30T10:00:50;1.17;;;0.20;;
34359;SDS011;20624;55.870;26.506;2022-10-30T10:03:36;1.48;;;0.25;;
34359;SDS011;20624;55.870;26.506;2022-10-30T10:06:13;2.30;;;0.32;;
34359;SDS011;20624;55.870;26.506;2022-10-30T10:08:45;4.20;;;0.68;;
34359;SDS011;20624;55.870;26.506;2022-10-30T10:11:23;2.47;;;0.40;;
34359;SDS011;20624;55.870;26.506;2022-10-30T10:16:35;0.98;;;0.20;;
34359;SDS011;20624;55.870;26.506;2022-10-30T10:19:17;2.70;;;0.45;;
34359;SDS011;20624;55.870;26.506;2022-10-30T10:21:54;1.35;;;0.28;;
34359;SDS011;20624;55.870;26.506;2022-10-30T10:24:33;3.30;;;0.52;;
34359;SDS011;20624;55.870;26.506;2022-10-30T10:30:25;1.67;;;0.20;;
34359;SDS011;20624;55.870;26.506;2022-10-30T10:33:21;1.88;;;0.30;;
34359;SDS011;20624;55.870;26.506;2022-10-30T10:41:26;1.20;;;0.22;;
34359;SDS011;20624;55.870;26.506;2022-10-30T10:47:15;0.80;;;0.10;;
34359;SDS011;20624;55.870;26.506;2022-10-30T10:52:47;2.08;;;0.30;;
34359;SDS011;20624;55.870;26.506;2022-10-30T10:55:36;1.75;;;0.30;;
34359;SDS011;20624;55.870;26.506;2022-10-30T10:58:07;1.30;;;0.40;;
34359;SDS011;20624;55.870;26.506;2022-10-30T11:00:44;1.65;;;0.30;;
34359;SDS011;20624;55.870;26.506;2022-10-30T11:03:17;6.45;;;1.00;;
34359;SDS011;20624;55.870;26.506;2022-10-30T11:05:53;3.72;;;0.70;;
34359;SDS011;20624;55.870;26.506;2022-10-30T11:08:28;3.13;;;0.52;;
34359;SDS011;20624;55.870;26.506;2022-10-30T11:11:03;2.35;;;0.52;;
34359;SDS011;20624;55.870;26.506;2022-10-30T11:13:35;2.97;;;0.52;;
34359;SDS011;20624;55.870;26.506;2022-10-30T11:18:44;5.25;;;1.02;;
34359;SDS011;20624;55.870;26.506;2022-10-30T11:21:17;5.32;;;0.80;;
34359;SDS011;20624;55.870;26.506;2022-10-30T11:23:48;3.85;;;0.73;;
34359;SDS011;20624;55.870;26.506;2022-10-30T11:28:47;7.47;;;1.23;;
34359;SDS011;20624;55.870;26.506;2022-10-30T11:31:28;1.63;;;0.40;;
34359;SDS011;20624;55.870;26.506;2022-10-30T11:36:46;3.97;;;0.57;;
34359;SDS011;20624;55.870;26.506;2022-10-30T11:39:18;5.00;;;0.75;;
34359;SDS011;20624;55.870;26.506;2022-10-30T11:41:47;3.60;;;0.55;;
34359;SDS011;20624;55.870;26.506;2022-10-30T11:44:40;1.13;;;0.30;;
34359;SDS011;20624;55.870;26.506;2022-10-30T11:47:21;2.78;;;0.40;;
34359;SDS011;20624;55.870;26.506;2022-10-30T11:49:57;1.60;;;0.35;;
34359;SDS011;20624;55.870;26.506;2022-10-30T11:52:42;0.95;;;0.20;;
34359;SDS011;20624;55.870;26.506;2022-10-30T11:55:22;3.58;;;0.70;;
34359;SDS011;20624;55.870;26.506;2022-10-30T11:57:56;2.47;;;0.40;;
34359;SDS011;20624;55.870;26.506;2022-10-30T12:00:25;2.65;;;0.40;;
34359;SDS011;20624;55.870;26.506;2022-10-30T12:02:56;0.85;;;0.20;;
34359;SDS011;20624;55.870;26.506;2022-10-30T12:05:30;3.97;;;0.32;;
34359;SDS011;20624;55.870;26.506;2022-10-30T12:10:40;2.85;;;0.43;;
34359;SDS011;20624;55.870;26.506;2022-10-30T12:13:15;2.08;;;0.30;;
34359;SDS011;20624;55.870;26.506;2022-10-30T12:15:48;1.77;;;0.52;;
34359;SDS011;20624;55.870;26.506;2022-10-30T12:18:35;1.15;;;0.22;;
34359;SDS011;20624;55.870;26.506;2022-10-30T12:21:03;1.85;;;0.38;;
34359;SDS011;20624;55.870;26.506;2022-10-30T12:23:31;2.38;;;0.45;;
34359;SDS011;20624;55.870;26.506;2022-10-30T12:26:08;2.08;;;0.40;;
34359;SDS011;20624;55.870;26.506;2022-10-30T12:28:39;2.97;;;0.52;;
34359;SDS011;20624;55.870;26.506;2022-10-30T12:31:19;4.05;;;0.63;;
34359;SDS011;20624;55.870;26.506;2022-10-30T12:33:52;1.25;;;0.25;;
34359;SDS011;20624;55.870;26.506;2022-10-30T12:36:47;2.95;;;0.50;;
34359;SDS011;20624;55.870;26.506;2022-10-30T12:39:32;3.13;;;0.43;;
34359;SDS011;20624;55.870;26.506;2022-10-30T12:42:21;38.25;;;34.28;;
34359;SDS011;20624;55.870;26.506;2022-10-30T12:44:52;22.13;;;19.80;;
34359;SDS011;20624;55.870;26.506;2022-10-30T12:47:39;2.25;;;0.47;;
34359;SDS011;20624;55.870;26.506;2022-10-30T12:50:24;1.10;;;0.28;;
34359;SDS011;20624;55.870;26.506;2022-10-30T12:55:57;146.65;;;88.50;;
34359;SDS011;20624;55.870;26.506;2022-10-30T12:58:32;16.73;;;9.23;;
34359;SDS011;20624;55.870;26.506;2022-10-30T13:04:08;4.90;;;0.70;;
34359;SDS011;20624;55.870;26.506;2022-10-30T13:09:41;2.05;;;0.40;;
34359;SDS011;20624;55.870;26.506;2022-10-30T13:12:35;3.17;;;0.50;;
34359;SDS011;20624;55.870;26.506;2022-10-30T13:15:09;2.05;;;0.38;;
34359;SDS011;20624;55.870;26.506;2022-10-30T13:17:48;2.28;;;0.50;;
34359;SDS011;20624;55.870;26.506;2022-10-30T13:20:16;1.30;;;0.35;;
34359;SDS011;20624;55.870;26.506;2022-10-30T13:25:22;2.42;;;0.43;;
34359;SDS011;20624;55.870;26.506;2022-10-30T13:30:33;2.83;;;0.43;;
34359;SDS011;20624;55.870;26.506;2022-10-30T13:36:19;1.92;;;0.52;;
34359;SDS011;20624;55.870;26.506;2022-10-30T13:39:15;1.38;;;0.22;;
34359;SDS011;20624;55.870;26.506;2022-10-30T13:42:02;1.85;;;0.30;;
34359;SDS011;20624;55.870;26.506;2022-10-30T13:47:31;2.50;;;0.30;;
34359;SDS011;20624;55.870;26.506;2022-10-30T13:55:29;3.42;;;0.57;;
34359;SDS011;20624;55.870;26.506;2022-10-30T13:58:03;2.20;;;0.20;;
34359;SDS011;20624;55.870;26.506;2022-10-30T14:06:39;6.28;;;0.88;;
34359;SDS011;20624;55.870;26.506;2022-10-30T14:09:32;2.22;;;0.40;;
34359;SDS011;20624;55.870;26.506;2022-10-30T14:15:15;1.13;;;0.20;;
34359;SDS011;20624;55.870;26.506;2022-10-30T14:23:29;0.85;;;0.17;;
34359;SDS011;20624;55.870;26.506;2022-10-30T14:28:37;3.95;;;0.73;;
34359;SDS011;20624;55.870;26.506;2022-10-30T14:31:10;0.75;;;0.17;;
34359;SDS011;20624;55.870;26.506;2022-10-30T14:36:18;2.35;;;0.38;;
34359;SDS011;20624;55.870;26.506;2022-10-30T14:38:52;4.40;;;0.55;;
34359;SDS011;20624;55.870;26.506;2022-10-30T14:47:22;2.00;;;0.40;;
34359;SDS011;20624;55.870;26.506;2022-10-30T14:55:34;2.10;;;0.30;;
34359;SDS011;20624;55.870;26.506;2022-10-30T14:58:22;8.70;;;0.80;;
34359;SDS011;20624;55.870;26.506;2022-10-30T15:01:18;4.18;;;0.30;;
34359;SDS011;20624;55.870;26.506;2022-10-30T15:09:31;5.10;;;0.70;;
34359;SDS011;20624;55.870;26.506;2022-10-30T15:15:09;2.67;;;0.50;;
34359;SDS011;20624;55.870;26.506;2022-10-30T15:17:39;1.88;;;0.40;;
34359;SDS011;20624;55.870;26.506;2022-10-30T15:20:17;8.13;;;0.65;;
34359;SDS011;20624;55.870;26.506;2022-10-30T15:22:49;2.75;;;0.50;;
34359;SDS011;20624;55.870;26.506;2022-10-30T15:25:23;2.15;;;0.32;;
34359;SDS011;20624;55.870;26.506;2022-10-30T15:27:56;1.33;;;0.30;;
34359;SDS011;20624;55.870;26.506;2022-10-30T15:30:25;4.60;;;0.60;;
34359;SDS011;20624;55.870;26.506;2022-10-30T15:32:53;4.18;;;0.55;;
34359;SDS011;20624;55.870;26.506;2022-10-30T15:35:26;4.82;;;0.40;;
34359;SDS011;20624;55.870;26.506;2022-10-30T15:37:57;2.50;;;0.30;;
34359;SDS011;20624;55.870;26.506;2022-10-30T15:40:25;2.90;;;0.60;;
34359;SDS011;20624;55.870;26.506;2022-10-30T15:42:53;1.35;;;0.25;;
34359;SDS011;20624;55.870;26.506;2022-10-30T15:45:33;2.20;;;0.40;;
34359;SDS011;20624;55.870;26.506;2022-10-30T15:48:05;1.92;;;0.35;;
34359;SDS011;20624;55.870;26.506;2022-10-30T15:50:43;1.13;;;0.20;;
34359;SDS011;20624;55.870;26.506;2022-10-30T15:53:22;8.35;;;5.10;;
34359;SDS011;20624;55.870;26.506;2022-10-30T15:55:56;14.57;;;13.07;;
34359;SDS011;20624;55.870;26.506;2022-10-30T15:58:24;4.55;;;0.95;;
34359;SDS011;20624;55.870;26.506;2022-10-30T16:00:56;5.10;;;0.60;;
34359;SDS011;20624;55.870;26.506;2022-10-30T16:03:25;15.10;;;12.88;;
34359;SDS011;20624;55.870;26.506;2022-10-30T16:06:03;2.83;;;0.45;;
34359;SDS011;20624;55.870;26.506;2022-10-30T16:08:32;21.70;;;14.45;;
34359;SDS011;20624;55.870;26.506;2022-10-30T16:11:09;73.55;;;56.30;;
34359;SDS011;20624;55.870;26.506;2022-10-30T16:13:37;15.43;;;8.40;;
34359;SDS011;20624;55.870;26.506;2022-10-30T16:16:04;43.60;;;36.80;;
34359;SDS011;20624;55.870;26.506;2022-10-30T16:18:33;8.80;;;1.05;;
34359;SDS011;20624;55.870;26.506;2022-10-30T16:21:04;4.22;;;0.60;;
34359;SDS011;20624;55.870;26.506;2022-10-30T16:23:40;6.18;;;0.68;;
34359;SDS011;20624;55.870;26.506;2022-10-30T16:26:21;73.18;;;60.13;;
34359;SDS011;20624;55.870;26.506;2022-10-30T16:31:42;106.72;;;74.00;;
34359;SDS011;20624;55.870;26.506;2022-10-30T16:34:17;111.25;;;72.35;;
34359;SDS011;20624;55.870;26.506;2022-10-30T16:36:57;125.35;;;77.97;;
34359;SDS011;20624;55.870;26.506;2022-10-30T16:39:25;1.60;;;0.30;;
34359;SDS011;20624;55.870;26.506;2022-10-30T16:41:58;1.52;;;0.30;;
34359;SDS011;20624;55.870;26.506;2022-10-30T16:44:27;53.78;;;36.55;;
34359;SDS011;20624;55.870;26.506;2022-10-30T16:47:00;74.55;;;52.95;;
34359;SDS011;20624;55.870;26.506;2022-10-30T16:49:49;76.50;;;58.50;;
34359;SDS011;20624;55.870;26.506;2022-10-30T16:52:32;143.93;;;95.25;;
34359;SDS011;20624;55.870;26.506;2022-10-30T16:55:05;5.05;;;0.50;;
34359;SDS011;20624;55.870;26.506;2022-10-30T16:57:35;2.50;;;0.40;;
34359;SDS011;20624;55.870;26.506;2022-10-30T17:00:16;35.30;;;31.65;;
34359;SDS011;20624;55.870;26.506;2022-10-30T17:02:52;108.72;;;75.80;;
34359;SDS011;20624;55.870;26.506;2022-10-30T17:05:26;137.10;;;89.10;;
34359;SDS011;20624;55.870;26.506;2022-10-30T17:10:36;125.20;;;84.97;;
34359;SDS011;20624;55.870;26.506;2022-10-30T17:19:00;140.88;;;94.47;;
34359;SDS011;20624;55.870;26.506;2022-10-30T17:21:57;2.83;;;0.28;;